sensor_id;sensor_type;location;lat;lon;timestamp;pressure;altitude;pressure_sealevel;temperature;humidity
11212;BME280;5663;50.864;12.096;2023-05-19T00:00:33;100252.88;;;12.27;59.65
11212;BME280;5663;50.864;12.096;2023-05-19T00:03:09;100250.34;;;12.25;59.51
11212;BME280;5663;50.864;12.096;2023-05-19T00:05:41;100239.91;;;12.25;59.58
11212;BME280;5663;50.864;12.096;2023-05-19T00:08:18;100241.59;;;12.26;59.72
11212;BME280;5663;50.864;12.096;2023-05-19T00:10:52;100246.81;;;12.26;60.09
11212;BME280;5663;50.864;12.096;2023-05-19T00:13:28;100239.91;;;12.25;60.04
11212;BME280;5663;50.864;12.096;2023-05-19T00:15:59;100229.69;;;12.21;60.22
11212;BME280;5663;50.864;12.096;2023-05-19T00:18:33;100227.94;;;12.21;59.79
11212;BME280;5663;50.864;12.096;2023-05-19T00:21:14;100233.91;;;12.23;59.92
11212;BME280;5663;50.864;12.096;2023-05-19T00:23:45;100221.88;;;12.21;60.23
11212;BME280;5663;50.864;12.096;2023-05-19T00:26:17;100222.88;;;12.17;60.18
11212;BME280;5663;50.864;12.096;2023-05-19T00:28:56;100210.97;;;12.11;60.61
11212;BME280;5663;50.864;12.096;2023-05-19T00:31:29;100227.34;;;12.15;61.00
11212;BME280;5663;50.864;12.096;2023-05-19T00:34:09;100218.72;;;12.13;60.76
11212;BME280;5663;50.864;12.096;2023-05-19T00:36:41;100215.34;;;12.11;60.63
11212;BME280;5663;50.864;12.096;2023-05-19T00:39:33;100218.94;;;12.08;61.09
11212;BME280;5663;50.864;12.096;2023-05-19T00:42:11;100213.06;;;12.03;60.86
11212;BME280;5663;50.864;12.096;2023-05-19T00:48:05;100215.16;;;11.95;60.98
11212;BME280;5663;50.864;12.096;2023-05-19T00:50:39;100214.38;;;11.93;61.25
11212;BME280;5663;50.864;12.096;2023-05-19T00:53:08;100208.50;;;11.88;61.51
11212;BME280;5663;50.864;12.096;2023-05-19T00:55:54;100220.63;;;11.89;61.41
11212;BME280;5663;50.864;12.096;2023-05-19T00:58:42;100220.88;;;11.82;61.65
11212;BME280;5663;50.864;12.096;2023-05-19T01:01:11;100221.00;;;11.79;61.75
11212;BME280;5663;50.864;12.096;2023-05-19T01:03:45;100215.91;;;11.76;62.02
11212;BME280;5663;50.864;12.096;2023-05-19T01:06:21;100219.63;;;11.71;61.92
11212;BME280;5663;50.864;12.096;2023-05-19T01:08:57;100214.63;;;11.66;62.14
11212;BME280;5663;50.864;12.096;2023-05-19T01:11:36;100215.78;;;11.59;62.14
11212;BME280;5663;50.864;12.096;2023-05-19T01:14:04;100220.22;;;11.57;62.35
11212;BME280;5663;50.864;12.096;2023-05-19T01:16:41;100211.84;;;11.49;62.48
11212;BME280;5663;50.864;12.096;2023-05-19T01:19:30;100203.38;;;11.44;62.64
11212;BME280;5663;50.864;12.096;2023-05-19T01:22:24;100205.13;;;11.43;62.43
11212;BME280;5663;50.864;12.096;2023-05-19T01:28:31;100204.50;;;11.38;62.61
11212;BME280;5663;50.864;12.096;2023-05-19T01:31:11;100198.66;;;11.31;62.49
11212;BME280;5663;50.864;12.096;2023-05-19T01:33:52;100197.75;;;11.32;62.58
11212;BME280;5663;50.864;12.096;2023-05-19T01:36:35;100207.41;;;11.30;62.37
11212;BME280;5663;50.864;12.096;2023-05-19T01:39:22;100210.00;;;11.30;62.29
11212;BME280;5663;50.864;12.096;2023-05-19T01:42:12;100216.13;;;11.29;61.98
11212;BME280;5663;50.864;12.096;2023-05-19T01:45:02;100204.97;;;11.26;62.16
11212;BME280;5663;50.864;12.096;2023-05-19T01:47:44;100211.41;;;11.17;62.25
11212;BME280;5663;50.864;12.096;2023-05-19T01:50:43;100221.69;;;11.20;62.22
11212;BME280;5663;50.864;12.096;2023-05-19T01:53:44;100213.09;;;11.18;62.50
11212;BME280;5663;50.864;12.096;2023-05-19T01:56:48;100216.75;;;11.14;62.49
11212;BME280;5663;50.864;12.096;2023-05-19T01:59:51;100228.09;;;11.12;62.61
11212;BME280;5663;50.864;12.096;2023-05-19T02:02:36;100218.66;;;11.09;62.76
11212;BME280;5663;50.864;12.096;2023-05-19T02:05:36;100220.38;;;11.10;62.79
11212;BME280;5663;50.864;12.096;2023-05-19T02:08:42;100217.06;;;11.05;63.00
11212;BME280;5663;50.864;12.096;2023-05-19T02:12:34;100185.56;;;10.91;62.87
11212;BME280;5663;50.864;12.096;2023-05-19T02:15:29;100207.69;;;11.01;63.20
11212;BME280;5663;50.864;12.096;2023-05-19T02:18:30;100203.50;;;10.97;63.19
11212;BME280;5663;50.864;12.096;2023-05-19T02:21:31;100204.38;;;10.97;63.23
11212;BME280;5663;50.864;12.096;2023-05-19T02:24:12;100199.13;;;10.99;63.50
11212;BME280;5663;50.864;12.096;2023-05-19T02:27:00;100196.63;;;10.96;63.53
11212;BME280;5663;50.864;12.096;2023-05-19T02:29:51;100094.03;;;10.35;63.34
11212;BME280;5663;50.864;12.096;2023-05-19T02:32:35;100197.34;;;10.99;63.51
11212;BME280;5663;50.864;12.096;2023-05-19T02:35:29;100179.81;;;10.82;63.37
11212;BME280;5663;50.864;12.096;2023-05-19T02:38:03;100201.72;;;10.99;63.41
11212;BME280;5663;50.864;12.096;2023-05-19T02:40:55;100203.41;;;11.00;63.38
11212;BME280;5663;50.864;12.096;2023-05-19T02:43:25;100200.75;;;11.01;63.56
11212;BME280;5663;50.864;12.096;2023-05-19T02:46:19;100197.28;;;11.01;63.58
11212;BME280;5663;50.864;12.096;2023-05-19T02:49:15;100203.28;;;11.03;63.87
11212;BME280;5663;50.864;12.096;2023-05-19T02:51:58;100195.47;;;11.03;63.51
11212;BME280;5663;50.864;12.096;2023-05-19T02:54:33;100202.38;;;11.04;63.38
11212;BME280;5663;50.864;12.096;2023-05-19T02:57:53;100197.97;;;11.06;63.62
11212;BME280;5663;50.864;12.096;2023-05-19T03:00:15;100191.03;;;11.05;63.72
11212;BME280;5663;50.864;12.096;2023-05-19T03:02:55;100191.03;;;11.05;63.60
11212;BME280;5663;50.864;12.096;2023-05-19T03:05:41;100194.44;;;11.07;63.72
11212;BME280;5663;50.864;12.096;2023-05-19T03:08:18;100196.13;;;11.08;63.87
11212;BME280;5663;50.864;12.096;2023-05-19T03:11:05;100196.13;;;11.08;64.01
11212;BME280;5663;50.864;12.096;2023-05-19T03:13:47;100151.94;;;10.84;64.09
11212;BME280;5663;50.864;12.096;2023-05-19T03:16:23;100188.31;;;11.08;64.14
11212;BME280;5663;50.864;12.096;2023-05-19T03:19:10;100187.56;;;11.06;63.89
11212;BME280;5663;50.864;12.096;2023-05-19T03:21:41;100189.25;;;11.07;63.85
11212;BME280;5663;50.864;12.096;2023-05-19T03:25:11;100191.84;;;11.07;64.16
11212;BME280;5663;50.864;12.096;2023-05-19T03:28:28;100190.28;;;11.03;64.53
11212;BME280;5663;50.864;12.096;2023-05-19T03:31:09;100191.91;;;11.05;64.42
11212;BME280;5663;50.864;12.096;2023-05-19T03:33:46;100192.03;;;11.02;64.76
11212;BME280;5663;50.864;12.096;2023-05-19T03:36:17;100196.41;;;11.02;64.71
11212;BME280;5663;50.864;12.096;2023-05-19T03:38:53;100179.31;;;10.95;64.88
11212;BME280;5663;50.864;12.096;2023-05-19T03:41:33;100199.78;;;11.04;64.73
11212;BME280;5663;50.864;12.096;2023-05-19T03:44:15;100203.94;;;11.08;64.38
11212;BME280;5663;50.864;12.096;2023-05-19T03:47:12;100114.06;;;10.55;64.29
11212;BME280;5663;50.864;12.096;2023-05-19T03:50:20;100205.47;;;11.14;64.69
11212;BME280;5663;50.864;12.096;2023-05-19T03:53:21;100206.22;;;11.17;64.73
11212;BME280;5663;50.864;12.096;2023-05-19T03:56:43;100167.81;;;11.00;64.43
11212;BME280;5663;50.864;12.096;2023-05-19T03:59:45;100197.94;;;11.28;64.36
11212;BME280;5663;50.864;12.096;2023-05-19T04:02:40;100167.19;;;11.16;64.46
11212;BME280;5663;50.864;12.096;2023-05-19T04:06:19;100200.00;;;11.42;64.36
11212;BME280;5663;50.864;12.096;2023-05-19T04:09:31;100201.56;;;11.46;64.10
11212;BME280;5663;50.864;12.096;2023-05-19T04:12:13;100198.78;;;11.50;64.34
11212;BME280;5663;50.864;12.096;2023-05-19T04:16:04;100202.75;;;11.59;64.55
11212;BME280;5663;50.864;12.096;2023-05-19T04:18:29;100211.22;;;11.64;64.29
11212;BME280;5663;50.864;12.096;2023-05-19T04:20:59;100209.28;;;11.69;64.66
11212;BME280;5663;50.864;12.096;2023-05-19T04:23:45;100197.66;;;11.76;64.92
11212;BME280;5663;50.864;12.096;2023-05-19T04:26:25;100200.09;;;11.81;64.65
11212;BME280;5663;50.864;12.096;2023-05-19T04:28:58;100202.38;;;11.89;64.68
11212;BME280;5663;50.864;12.096;2023-05-19T04:32:14;100200.28;;;11.97;64.56
11212;BME280;5663;50.864;12.096;2023-05-19T04:34:48;100207.84;;;12.03;64.44
11212;BME280;5663;50.864;12.096;2023-05-19T04:37:42;100202.22;;;12.12;64.34
11212;BME280;5663;50.864;12.096;2023-05-19T04:40:21;100210.56;;;12.20;64.60
11212;BME280;5663;50.864;12.096;2023-05-19T04:42:52;100211.06;;;12.28;64.77
11212;BME280;5663;50.864;12.096;2023-05-19T04:45:22;100205.47;;;12.38;64.80
11212;BME280;5663;50.864;12.096;2023-05-19T04:47:53;100209.34;;;12.48;64.94
11212;BME280;5663;50.864;12.096;2023-05-19T04:50:31;100199.47;;;12.54;65.07
11212;BME280;5663;50.864;12.096;2023-05-19T04:53:05;100212.66;;;12.70;64.78
11212;BME280;5663;50.864;12.096;2023-05-19T04:55:41;100205.97;;;12.83;64.72
11212;BME280;5663;50.864;12.096;2023-05-19T04:58:21;100210.69;;;12.94;63.77
11212;BME280;5663;50.864;12.096;2023-05-19T05:01:28;100210.00;;;13.08;63.32
11212;BME280;5663;50.864;12.096;2023-05-19T05:04:23;100220.59;;;13.24;62.46
11212;BME280;5663;50.864;12.096;2023-05-19T05:07:21;100207.03;;;13.35;61.29
11212;BME280;5663;50.864;12.096;2023-05-19T05:10:18;100210.97;;;13.43;60.54
11212;BME280;5663;50.864;12.096;2023-05-19T05:12:48;100202.88;;;13.48;60.52
11212;BME280;5663;50.864;12.096;2023-05-19T05:15:19;100212.91;;;13.74;59.34
11212;BME280;5663;50.864;12.096;2023-05-19T05:17:51;100210.50;;;14.04;58.02
11212;BME280;5663;50.864;12.096;2023-05-19T05:20:30;100212.69;;;14.45;57.48
11212;BME280;5663;50.864;12.096;2023-05-19T05:23:01;100210.56;;;14.85;56.79
11212;BME280;5663;50.864;12.096;2023-05-19T05:25:34;100211.81;;;15.25;55.60
11212;BME280;5663;50.864;12.096;2023-05-19T05:28:09;100220.16;;;15.48;53.45
11212;BME280;5663;50.864;12.096;2023-05-19T05:30:42;100209.94;;;15.73;53.18
11212;BME280;5663;50.864;12.096;2023-05-19T05:33:13;100187.28;;;15.87;52.46
11212;BME280;5663;50.864;12.096;2023-05-19T05:35:50;100201.75;;;16.22;51.49
11212;BME280;5663;50.864;12.096;2023-05-19T05:38:22;100177.38;;;16.20;51.34
11212;BME280;5663;50.864;12.096;2023-05-19T05:40:55;100179.72;;;16.25;50.79
11212;BME280;5663;50.864;12.096;2023-05-19T05:43:23;100213.72;;;16.69;50.81
11212;BME280;5663;50.864;12.096;2023-05-19T05:45:53;100208.44;;;16.98;50.36
11212;BME280;5663;50.864;12.096;2023-05-19T05:48:25;100204.53;;;17.18;49.56
11212;BME280;5663;50.864;12.096;2023-05-19T05:50:56;100216.50;;;17.49;47.98
11212;BME280;5663;50.864;12.096;2023-05-19T05:53:30;100213.38;;;17.57;48.48
11212;BME280;5663;50.864;12.096;2023-05-19T05:56:05;100212.25;;;17.73;48.05
11212;BME280;5663;50.864;12.096;2023-05-19T05:58:38;100211.13;;;17.78;48.14
11212;BME280;5663;50.864;12.096;2023-05-19T06:01:09;100199.97;;;17.87;47.63
11212;BME280;5663;50.864;12.096;2023-05-19T06:03:41;100211.56;;;17.97;46.64
11212;BME280;5663;50.864;12.096;2023-05-19T06:06:13;100202.03;;;17.69;46.54
11212;BME280;5663;50.864;12.096;2023-05-19T06:08:42;100205.56;;;17.55;46.93
11212;BME280;5663;50.864;12.096;2023-05-19T06:11:13;100193.78;;;17.48;47.12
11212;BME280;5663;50.864;12.096;2023-05-19T06:13:51;100210.47;;;17.34;46.83
11212;BME280;5663;50.864;12.096;2023-05-19T06:16:18;100210.63;;;17.18;47.49
11212;BME280;5663;50.864;12.096;2023-05-19T06:18:50;100203.34;;;17.09;47.05
11212;BME280;5663;50.864;12.096;2023-05-19T06:21:21;100202.09;;;17.15;47.49
11212;BME280;5663;50.864;12.096;2023-05-19T06:23:49;100205.31;;;17.33;48.44
11212;BME280;5663;50.864;12.096;2023-05-19T06:26:22;100171.59;;;17.52;48.83
11212;BME280;5663;50.864;12.096;2023-05-19T06:28:53;100202.59;;;18.38;47.58
11212;BME280;5663;50.864;12.096;2023-05-19T06:31:23;100200.44;;;18.68;47.92
11212;BME280;5663;50.864;12.096;2023-05-19T06:33:51;100206.13;;;19.12;46.02
11212;BME280;5663;50.864;12.096;2023-05-19T06:36:22;100196.69;;;19.20;45.12
11212;BME280;5663;50.864;12.096;2023-05-19T06:38:53;100204.53;;;19.09;44.33
11212;BME280;5663;50.864;12.096;2023-05-19T06:41:23;100205.00;;;19.03;44.51
11212;BME280;5663;50.864;12.096;2023-05-19T06:43:51;100190.22;;;18.77;44.46
11212;BME280;5663;50.864;12.096;2023-05-19T06:46:22;100209.84;;;18.73;44.49
11212;BME280;5663;50.864;12.096;2023-05-19T06:48:52;100205.84;;;18.54;45.39
11212;BME280;5663;50.864;12.096;2023-05-19T06:51:23;100206.94;;;18.26;44.99
11212;BME280;5663;50.864;12.096;2023-05-19T06:53:51;100205.66;;;18.06;45.82
11212;BME280;5663;50.864;12.096;2023-05-19T06:56:20;100196.19;;;17.78;46.37
11212;BME280;5663;50.864;12.096;2023-05-19T06:58:48;100213.75;;;17.78;46.39
11212;BME280;5663;50.864;12.096;2023-05-19T07:01:21;100213.59;;;17.66;46.51
11212;BME280;5663;50.864;12.096;2023-05-19T07:03:52;100204.31;;;17.48;46.25
11212;BME280;5663;50.864;12.096;2023-05-19T07:06:41;100197.09;;;17.24;46.66
11212;BME280;5663;50.864;12.096;2023-05-19T07:09:12;100195.00;;;17.30;47.53
11212;BME280;5663;50.864;12.096;2023-05-19T07:11:42;100204.03;;;17.26;46.67
11212;BME280;5663;50.864;12.096;2023-05-19T07:14:10;100199.38;;;17.16;46.72
11212;BME280;5663;50.864;12.096;2023-05-19T07:16:42;100199.91;;;17.21;47.38
11212;BME280;5663;50.864;12.096;2023-05-19T07:19:12;100188.63;;;17.19;47.23
11212;BME280;5663;50.864;12.096;2023-05-19T07:21:42;100199.56;;;17.13;47.32
11212;BME280;5663;50.864;12.096;2023-05-19T07:24:10;100200.53;;;17.12;47.42
11212;BME280;5663;50.864;12.096;2023-05-19T07:26:43;100184.19;;;17.07;47.43
11212;BME280;5663;50.864;12.096;2023-05-19T07:29:11;100187.38;;;17.12;47.48
11212;BME280;5663;50.864;12.096;2023-05-19T07:31:39;100191.19;;;17.21;48.31
11212;BME280;5663;50.864;12.096;2023-05-19T07:34:09;100192.91;;;17.35;48.31
11212;BME280;5663;50.864;12.096;2023-05-19T07:36:38;100190.19;;;17.36;47.67
11212;BME280;5663;50.864;12.096;2023-05-19T07:39:08;100185.97;;;17.34;47.72
11212;BME280;5663;50.864;12.096;2023-05-19T07:41:37;100189.13;;;17.39;47.35
11212;BME280;5663;50.864;12.096;2023-05-19T07:44:08;100184.81;;;17.38;46.98
11212;BME280;5663;50.864;12.096;2023-05-19T07:46:37;100188.25;;;17.26;47.19
11212;BME280;5663;50.864;12.096;2023-05-19T07:49:05;100185.50;;;17.27;47.13
11212;BME280;5663;50.864;12.096;2023-05-19T07:51:39;100175.44;;;17.34;47.38
11212;BME280;5663;50.864;12.096;2023-05-19T07:54:15;100182.00;;;17.41;47.66
11212;BME280;5663;50.864;12.096;2023-05-19T07:56:47;100176.53;;;17.44;47.53
11212;BME280;5663;50.864;12.096;2023-05-19T07:59:19;100182.00;;;17.41;46.58
11212;BME280;5663;50.864;12.096;2023-05-19T08:01:49;100178.41;;;17.42;46.92
11212;BME280;5663;50.864;12.096;2023-05-19T08:04:18;100186.81;;;17.47;46.71
11212;BME280;5663;50.864;12.096;2023-05-19T08:06:46;100175.91;;;17.53;47.11
11212;BME280;5663;50.864;12.096;2023-05-19T08:09:18;100164.56;;;17.65;47.10
11212;BME280;5663;50.864;12.096;2023-05-19T08:11:47;100185.22;;;17.71;47.04
11212;BME280;5663;50.864;12.096;2023-05-19T08:14:16;100180.22;;;17.67;46.80
11212;BME280;5663;50.864;12.096;2023-05-19T08:16:47;100159.94;;;17.56;46.35
11212;BME280;5663;50.864;12.096;2023-05-19T08:19:17;100187.28;;;17.66;47.10
11212;BME280;5663;50.864;12.096;2023-05-19T08:21:47;100184.13;;;17.61;46.72
11212;BME280;5663;50.864;12.096;2023-05-19T08:24:22;100185.59;;;17.65;46.46
11212;BME280;5663;50.864;12.096;2023-05-19T08:27:02;100174.63;;;17.46;46.29
11212;BME280;5663;50.864;12.096;2023-05-19T08:29:39;100183.59;;;17.56;46.35
11212;BME280;5663;50.864;12.096;2023-05-19T08:32:10;100161.81;;;17.54;45.86
11212;BME280;5663;50.864;12.096;2023-05-19T08:34:43;100170.69;;;17.79;45.94
11212;BME280;5663;50.864;12.096;2023-05-19T08:37:15;100146.31;;;17.77;45.99
11212;BME280;5663;50.864;12.096;2023-05-19T08:39:53;100168.38;;;17.87;44.11
11212;BME280;5663;50.864;12.096;2023-05-19T08:42:23;100157.84;;;17.87;44.44
11212;BME280;5663;50.864;12.096;2023-05-19T08:44:52;100167.97;;;17.93;43.68
11212;BME280;5663;50.864;12.096;2023-05-19T08:47:21;100143.53;;;17.91;44.01
11212;BME280;5663;50.864;12.096;2023-05-19T08:49:52;100156.81;;;18.02;44.08
11212;BME280;5663;50.864;12.096;2023-05-19T08:52:41;100141.22;;;17.99;44.83
11212;BME280;5663;50.864;12.096;2023-05-19T08:55:27;100141.22;;;18.25;44.17
11212;BME280;5663;50.864;12.096;2023-05-19T08:58:02;100152.75;;;18.35;44.90
11212;BME280;5663;50.864;12.096;2023-05-19T09:00:37;100150.84;;;18.50;43.82
11212;BME280;5663;50.864;12.096;2023-05-19T09:03:16;100150.59;;;18.65;43.28
11212;BME280;5663;50.864;12.096;2023-05-19T09:05:48;100150.13;;;18.84;43.22
11212;BME280;5663;50.864;12.096;2023-05-19T09:08:20;100087.56;;;18.75;42.25
11212;BME280;5663;50.864;12.096;2023-05-19T09:10:53;100134.16;;;19.34;43.59
11212;BME280;5663;50.864;12.096;2023-05-19T09:13:21;100127.06;;;19.69;42.22
11212;BME280;5663;50.864;12.096;2023-05-19T09:15:52;100138.28;;;19.96;41.82
11212;BME280;5663;50.864;12.096;2023-05-19T09:18:33;100130.94;;;19.88;39.73
11212;BME280;5663;50.864;12.096;2023-05-19T09:21:11;100131.66;;;19.90;40.00
11212;BME280;5663;50.864;12.096;2023-05-19T09:23:40;100129.00;;;19.90;40.04
11212;BME280;5663;50.864;12.096;2023-05-19T09:26:14;100133.81;;;19.96;40.08
11212;BME280;5663;50.864;12.096;2023-05-19T09:28:45;100124.81;;;20.10;41.49
11212;BME280;5663;50.864;12.096;2023-05-19T09:31:18;100120.03;;;20.15;41.11
11212;BME280;5663;50.864;12.096;2023-05-19T09:33:46;100121.81;;;20.26;42.22
11212;BME280;5663;50.864;12.096;2023-05-19T09:36:15;100124.69;;;20.34;40.84
11212;BME280;5663;50.864;12.096;2023-05-19T09:38:47;100123.97;;;20.32;41.26
11212;BME280;5663;50.864;12.096;2023-05-19T09:41:20;100115.78;;;20.46;41.71
11212;BME280;5663;50.864;12.096;2023-05-19T09:43:56;100112.63;;;20.75;39.88
11212;BME280;5663;50.864;12.096;2023-05-19T09:46:28;100121.28;;;20.65;38.30
11212;BME280;5663;50.864;12.096;2023-05-19T09:48:56;100113.84;;;20.71;39.39
11212;BME280;5663;50.864;12.096;2023-05-19T09:51:34;100103.63;;;20.98;38.29
11212;BME280;5663;50.864;12.096;2023-05-19T09:54:03;100106.53;;;20.95;39.24
11212;BME280;5663;50.864;12.096;2023-05-19T09:56:37;100099.06;;;21.00;37.64
11212;BME280;5663;50.864;12.096;2023-05-19T09:59:07;100098.03;;;21.12;38.11
11212;BME280;5663;50.864;12.096;2023-05-19T10:01:42;100108.03;;;21.30;38.06
11212;BME280;5663;50.864;12.096;2023-05-19T10:04:13;100100.09;;;21.30;37.45
11212;BME280;5663;50.864;12.096;2023-05-19T10:06:44;100079.78;;;21.09;37.67
11212;BME280;5663;50.864;12.096;2023-05-19T10:09:26;100093.97;;;21.08;36.90
11212;BME280;5663;50.864;12.096;2023-05-19T10:12:10;100094.16;;;21.16;37.88
11212;BME280;5663;50.864;12.096;2023-05-19T10:14:40;100052.34;;;20.89;37.90
11212;BME280;5663;50.864;12.096;2023-05-19T10:17:08;100090.50;;;21.08;38.48
11212;BME280;5663;50.864;12.096;2023-05-19T10:19:40;100078.69;;;21.12;38.62
11212;BME280;5663;50.864;12.096;2023-05-19T10:22:18;100080.94;;;21.16;39.14
11212;BME280;5663;50.864;12.096;2023-05-19T10:24:47;100090.84;;;21.14;37.84
11212;BME280;5663;50.864;12.096;2023-05-19T10:27:17;100090.75;;;21.26;37.76
11212;BME280;5663;50.864;12.096;2023-05-19T10:29:49;100075.22;;;21.53;37.57
11212;BME280;5663;50.864;12.096;2023-05-19T10:32:19;100080.06;;;21.48;36.64
11212;BME280;5663;50.864;12.096;2023-05-19T10:35:27;100079.47;;;21.24;37.24
11212;BME280;5663;50.864;12.096;2023-05-19T10:38:09;100096.50;;;21.31;37.43
11212;BME280;5663;50.864;12.096;2023-05-19T10:40:52;100088.69;;;21.29;37.36
11212;BME280;5663;50.864;12.096;2023-05-19T10:43:33;100082.78;;;21.37;38.07
11212;BME280;5663;50.864;12.096;2023-05-19T10:46:03;100084.81;;;21.54;38.34
11212;BME280;5663;50.864;12.096;2023-05-19T10:48:34;100088.63;;;21.61;38.03
11212;BME280;5663;50.864;12.096;2023-05-19T10:51:09;100086.53;;;21.55;37.34
11212;BME280;5663;50.864;12.096;2023-05-19T10:53:41;100084.13;;;21.31;37.78
11212;BME280;5663;50.864;12.096;2023-05-19T10:56:28;100087.03;;;21.49;39.27
11212;BME280;5663;50.864;12.096;2023-05-19T10:59:02;100072.16;;;21.58;39.13
11212;BME280;5663;50.864;12.096;2023-05-19T11:01:38;100074.56;;;21.61;38.65
11212;BME280;5663;50.864;12.096;2023-05-19T11:04:09;100067.59;;;21.60;38.30
11212;BME280;5663;50.864;12.096;2023-05-19T11:06:37;100064.28;;;21.68;38.05
11212;BME280;5663;50.864;12.096;2023-05-19T11:09:12;100056.56;;;21.55;38.16
11212;BME280;5663;50.864;12.096;2023-05-19T11:11:47;100068.56;;;21.59;38.49
11212;BME280;5663;50.864;12.096;2023-05-19T11:14:42;100076.13;;;21.63;37.87
11212;BME280;5663;50.864;12.096;2023-05-19T11:17:37;100065.13;;;21.68;38.67
11212;BME280;5663;50.864;12.096;2023-05-19T11:20:22;100062.72;;;21.65;38.40
11212;BME280;5663;50.864;12.096;2023-05-19T11:23:13;100058.03;;;21.69;38.26
11212;BME280;5663;50.864;12.096;2023-05-19T11:25:49;100055.53;;;21.77;36.87
11212;BME280;5663;50.864;12.096;2023-05-19T11:28:23;100050.00;;;21.80;36.74
11212;BME280;5663;50.864;12.096;2023-05-19T11:30:58;100047.59;;;21.77;36.83
11212;BME280;5663;50.864;12.096;2023-05-19T11:33:31;100052.47;;;21.72;38.15
11212;BME280;5663;50.864;12.096;2023-05-19T11:36:00;100053.63;;;21.79;38.73
11212;BME280;5663;50.864;12.096;2023-05-19T11:38:33;100050.00;;;21.80;38.65
11212;BME280;5663;50.864;12.096;2023-05-19T11:41:04;100039.31;;;22.01;38.19
11212;BME280;5663;50.864;12.096;2023-05-19T11:43:35;100031.03;;;22.25;37.58
11212;BME280;5663;50.864;12.096;2023-05-19T11:46:11;100013.88;;;22.29;37.39
11212;BME280;5663;50.864;12.096;2023-05-19T11:48:50;100015.72;;;22.38;37.18
11212;BME280;5663;50.864;12.096;2023-05-19T11:51:25;100027.59;;;22.53;37.43
11212;BME280;5663;50.864;12.096;2023-05-19T11:53:58;100030.66;;;22.78;37.36
11212;BME280;5663;50.864;12.096;2023-05-19T11:56:36;100032.09;;;22.92;36.49
11212;BME280;5663;50.864;12.096;2023-05-19T11:59:07;100032.63;;;22.76;36.47
11212;BME280;5663;50.864;12.096;2023-05-19T12:01:41;100025.78;;;22.63;35.67
11212;BME280;5663;50.864;12.096;2023-05-19T12:04:09;100019.78;;;22.61;36.97
11212;BME280;5663;50.864;12.096;2023-05-19T12:06:38;100008.34;;;22.51;36.94
11212;BME280;5663;50.864;12.096;2023-05-19T12:09:06;100010.56;;;22.66;36.78
11212;BME280;5663;50.864;12.096;2023-05-19T12:11:37;100013.06;;;22.77;36.13
11212;BME280;5663;50.864;12.096;2023-05-19T12:14:17;100017.00;;;22.92;35.73
11212;BME280;5663;50.864;12.096;2023-05-19T12:16:50;100010.72;;;22.93;34.33
11212;BME280;5663;50.864;12.096;2023-05-19T12:19:22;99996.31;;;22.86;33.71
11212;BME280;5663;50.864;12.096;2023-05-19T12:21:52;100010.44;;;22.96;34.64
11212;BME280;5663;50.864;12.096;2023-05-19T12:24:20;100015.84;;;23.24;34.70
11212;BME280;5663;50.864;12.096;2023-05-19T12:26:50;100012.97;;;23.45;33.67
11212;BME280;5663;50.864;12.096;2023-05-19T12:29:34;100006.50;;;23.67;33.75
11212;BME280;5663;50.864;12.096;2023-05-19T12:32:06;99996.53;;;23.78;33.71
11212;BME280;5663;50.864;12.096;2023-05-19T12:34:35;100009.59;;;23.90;32.54
11212;BME280;5663;50.864;12.096;2023-05-19T12:37:08;100005.59;;;23.76;32.66
11212;BME280;5663;50.864;12.096;2023-05-19T12:39:42;99960.91;;;23.34;34.28
11212;BME280;5663;50.864;12.096;2023-05-19T12:42:15;99997.44;;;23.87;35.16
11212;BME280;5663;50.864;12.096;2023-05-19T12:44:52;100002.94;;;24.03;33.64
11212;BME280;5663;50.864;12.096;2023-05-19T12:47:28;100008.56;;;24.00;32.20
11212;BME280;5663;50.864;12.096;2023-05-19T12:50:00;100006.97;;;24.07;32.63
11212;BME280;5663;50.864;12.096;2023-05-19T12:52:33;99999.78;;;24.18;31.27
11212;BME280;5663;50.864;12.096;2023-05-19T12:55:12;99989.63;;;24.31;30.92
11212;BME280;5663;50.864;12.096;2023-05-19T12:57:48;99999.84;;;24.08;32.39
11212;BME280;5663;50.864;12.096;2023-05-19T13:00:21;99989.28;;;23.98;31.92
11212;BME280;5663;50.864;12.096;2023-05-19T13:02:58;99988.44;;;23.98;32.56
11212;BME280;5663;50.864;12.096;2023-05-19T13:05:27;99996.16;;;23.91;32.56
11212;BME280;5663;50.864;12.096;2023-05-19T13:08:03;99979.69;;;24.05;32.84
11212;BME280;5663;50.864;12.096;2023-05-19T13:10:33;99977.13;;;24.14;33.00
11212;BME280;5663;50.864;12.096;2023-05-19T13:13:04;99975.03;;;24.35;33.13
11212;BME280;5663;50.864;12.096;2023-05-19T13:15:37;99975.44;;;24.40;34.06
11212;BME280;5663;50.864;12.096;2023-05-19T13:18:12;99932.94;;;24.13;32.59
11212;BME280;5663;50.864;12.096;2023-05-19T13:21:41;99977.81;;;24.33;33.08
11212;BME280;5663;50.864;12.096;2023-05-19T13:24:09;99974.69;;;24.48;32.85
11212;BME280;5663;50.864;12.096;2023-05-19T13:26:37;99967.72;;;24.37;32.86
11212;BME280;5663;50.864;12.096;2023-05-19T13:29:06;99974.44;;;24.41;32.67
11212;BME280;5663;50.864;12.096;2023-05-19T13:31:35;99967.63;;;24.39;32.13
11212;BME280;5663;50.864;12.096;2023-05-19T13:34:05;99979.34;;;24.36;32.64
11212;BME280;5663;50.864;12.096;2023-05-19T13:36:35;99971.00;;;24.31;32.58
11212;BME280;5663;50.864;12.096;2023-05-19T13:39:06;99946.88;;;23.79;31.90
11212;BME280;5663;50.864;12.096;2023-05-19T13:41:34;99973.47;;;23.69;32.88
11212;BME280;5663;50.864;12.096;2023-05-19T13:44:12;99965.72;;;23.48;32.93
11212;BME280;5663;50.864;12.096;2023-05-19T13:46:41;99957.94;;;23.37;33.25
11212;BME280;5663;50.864;12.096;2023-05-19T13:49:12;99964.63;;;23.41;35.43
11212;BME280;5663;50.864;12.096;2023-05-19T13:51:42;99962.69;;;23.33;33.25